createdAt,value
2019-02-02T00:01:15.956Z,107.20
2019-02-02T00:03:44.096Z,109.80
2019-02-02T00:06:12.268Z,104.80
2019-02-02T00:08:40.406Z,92.87
2019-02-02T00:11:08.540Z,110.20
2019-02-02T00:13:36.720Z,99.30
2019-02-02T00:16:04.860Z,108.87
2019-02-02T00:18:33.012Z,114.87
2019-02-02T00:21:01.188Z,111.30
2019-02-02T00:23:29.328Z,105.03
2019-02-02T00:25:57.472Z,98.87
2019-02-02T00:28:25.666Z,118.80
2019-02-02T00:30:53.808Z,104.87
2019-02-02T00:33:21.944Z,99.50
2019-02-02T00:35:50.122Z,97.37
2019-02-02T00:38:18.263Z,97.43
2019-02-02T00:40:46.404Z,113.57
2019-02-02T00:43:14.572Z,93.83
2019-02-02T00:45:42.711Z,99.40
2019-02-02T00:48:11.024Z,98.37
2019-02-02T00:50:39.188Z,97.80
2019-02-02T00:53:07.333Z,96.63
2019-02-02T00:55:35.476Z,102.57
2019-02-02T00:58:03.653Z,90.80
2019-02-02T01:00:31.980Z,89.93
2019-02-02T01:03:00.121Z,93.63
2019-02-02T01:05:28.296Z,93.57
2019-02-02T01:07:56.432Z,88.30
2019-02-02T01:10:26.211Z,94.27
2019-02-02T01:12:54.371Z,86.70
2019-02-02T01:15:22.505Z,97.73
2019-02-02T01:17:50.638Z,91.63
2019-02-02T01:20:18.807Z,86.67
2019-02-02T01:22:46.939Z,90.17
2019-02-02T01:25:15.256Z,93.73
2019-02-02T01:27:43.479Z,91.80
2019-02-02T01:30:16.156Z,85.20
2019-02-02T01:32:44.964Z,88.97
2019-02-02T01:35:14.309Z,86.07
2019-02-02T01:37:42.449Z,78.10
2019-02-02T01:40:12.211Z,85.57
2019-02-02T01:42:40.371Z,91.37
2019-02-02T01:45:13.321Z,83.30
2019-02-02T01:47:41.506Z,80.00
2019-02-02T01:50:11.432Z,80.17
2019-02-02T01:52:39.572Z,85.50
2019-02-02T01:55:08.674Z,80.43
2019-02-02T01:57:36.840Z,82.20
2019-02-02T02:00:06.608Z,79.70
2019-02-02T02:02:34.741Z,84.97
2019-02-02T02:05:02.909Z,86.47
2019-02-02T02:07:31.058Z,76.90
2019-02-02T02:09:59.185Z,82.23
2019-02-02T02:12:27.353Z,90.07
2019-02-02T02:14:55.480Z,77.70
2019-02-02T02:17:23.657Z,93.27
2019-02-02T02:19:51.842Z,90.27
2019-02-02T02:22:20.969Z,89.27
2019-02-02T02:24:52.265Z,97.63
2019-02-02T02:27:22.071Z,93.07
2019-02-02T02:29:50.229Z,92.10
2019-02-02T02:32:18.401Z,94.20
2019-02-02T02:34:46.561Z,85.60
2019-02-02T02:37:14.704Z,92.47
2019-02-02T02:39:42.857Z,91.30
2019-02-02T02:42:11.040Z,95.13
2019-02-02T02:44:40.726Z,89.07
2019-02-02T02:47:08.900Z,89.93
2019-02-02T02:49:37.082Z,94.93
2019-02-02T02:52:05.235Z,92.80
2019-02-02T02:54:33.372Z,89.57
2019-02-02T02:57:01.635Z,89.13
2019-02-02T02:59:29.799Z,93.60
2019-02-02T03:02:04.628Z,88.20
2019-02-02T03:04:33.050Z,82.33
2019-02-02T03:07:01.185Z,89.67
2019-02-02T03:09:29.339Z,92.07
2019-02-02T03:11:58.014Z,98.47
2019-02-02T03:14:26.176Z,83.27
2019-02-02T03:16:54.308Z,82.90
2019-02-02T03:19:22.471Z,82.40
2019-02-02T03:21:50.627Z,82.10
2019-02-02T03:24:18.768Z,88.67
2019-02-02T03:26:46.977Z,88.63
2019-02-02T03:29:15.141Z,87.97
2019-02-02T03:31:43.279Z,94.33
2019-02-02T03:34:13.633Z,87.00
2019-02-02T03:36:43.136Z,88.57
2019-02-02T03:39:11.728Z,92.27
2019-02-02T03:41:39.893Z,88.23
2019-02-02T03:44:08.035Z,86.13
2019-02-02T03:46:36.312Z,87.33
2019-02-02T03:49:04.481Z,83.00
2019-02-02T03:51:32.629Z,83.57
2019-02-02T03:54:08.504Z,89.47
2019-02-02T03:56:30.612Z,85.13
2019-02-02T03:59:05.976Z,88.63
2019-02-02T04:01:30.182Z,85.67
2019-02-02T04:03:58.388Z,81.20
2019-02-02T04:06:26.545Z,84.87
2019-02-02T04:08:54.702Z,82.93
2019-02-02T04:11:23.002Z,87.37
2019-02-02T04:13:51.120Z,90.97
2019-02-02T04:16:19.268Z,95.90
2019-02-02T04:18:47.447Z,96.50
2019-02-02T04:21:15.597Z,99.37
2019-02-02T04:23:43.728Z,95.57
2019-02-02T04:26:11.897Z,93.30
2019-02-02T04:28:40.056Z,105.13
2019-02-02T04:31:08.203Z,109.93
2019-02-02T04:33:36.383Z,101.10
2019-02-02T04:36:04.520Z,106.60
2019-02-02T04:38:32.665Z,109.40
2019-02-02T04:41:00.844Z,112.13
2019-02-02T04:43:28.992Z,103.23
2019-02-02T04:45:57.148Z,111.17
2019-02-02T04:48:25.337Z,105.53
2019-02-02T04:50:53.483Z,97.80
2019-02-02T04:53:21.631Z,109.13
2019-02-02T04:55:49.830Z,104.73
2019-02-02T04:58:18.088Z,100.67
2019-02-02T05:00:46.259Z,116.27
2019-02-02T05:03:14.440Z,115.47
2019-02-02T05:05:42.591Z,98.97
2019-02-02T05:08:10.753Z,104.77
2019-02-02T05:10:38.929Z,108.63
2019-02-02T05:13:07.078Z,93.77
2019-02-02T05:15:35.230Z,102.13
2019-02-02T05:18:03.400Z,98.47
2019-02-02T05:20:31.543Z,97.93
2019-02-02T05:22:59.688Z,95.23
2019-02-02T05:25:27.857Z,99.37
2019-02-02T05:27:56.003Z,103.63
2019-02-02T05:30:25.714Z,104.40
2019-02-02T05:32:53.877Z,94.67
2019-02-02T05:35:22.003Z,97.03
2019-02-02T05:37:50.175Z,92.20
2019-02-02T05:40:19.209Z,92.67
2019-02-02T05:42:47.358Z,85.33
2019-02-02T05:45:17.119Z,95.33
2019-02-02T05:47:45.283Z,92.37
2019-02-02T05:50:14.889Z,86.90
2019-02-02T05:52:43.032Z,80.67
2019-02-02T05:55:12.606Z,84.20
2019-02-02T05:57:40.736Z,81.00
2019-02-02T06:00:17.828Z,84.43
2019-02-02T06:02:45.959Z,79.40
2019-02-02T06:05:14.263Z,80.17
2019-02-02T06:07:42.571Z,93.17
2019-02-02T06:10:12.347Z,84.70
2019-02-02T06:12:40.481Z,76.70
2019-02-02T06:15:08.651Z,82.10
2019-02-02T06:17:36.791Z,79.23
2019-02-02T06:20:07.325Z,73.00
2019-02-02T06:22:35.489Z,81.80
2019-02-02T06:25:04.393Z,82.43
2019-02-02T06:27:32.535Z,74.77
2019-02-02T06:30:04.344Z,80.07
2019-02-02T06:32:30.485Z,72.30
2019-02-02T06:34:58.738Z,73.57
2019-02-02T06:37:26.884Z,72.83
2019-02-02T06:39:55.021Z,80.67
2019-02-02T06:42:23.156Z,80.57
2019-02-02T06:44:51.314Z,73.03
2019-02-02T06:47:19.548Z,71.77
2019-02-02T06:49:47.689Z,69.70
2019-02-02T06:52:15.863Z,74.87
2019-02-02T06:54:44.016Z,74.80
2019-02-02T06:57:12.315Z,73.47
2019-02-02T06:59:40.489Z,74.77
2019-02-02T07:02:08.620Z,67.60
2019-02-02T07:04:36.775Z,67.63
2019-02-02T07:07:05.047Z,75.43
2019-02-02T07:09:33.179Z,67.70
2019-02-02T07:12:01.332Z,70.17
2019-02-02T07:14:29.494Z,70.30
2019-02-02T07:16:57.633Z,71.53
2019-02-02T07:19:25.771Z,70.20
2019-02-02T07:21:53.927Z,76.97
2019-02-02T07:24:22.067Z,84.20
2019-02-02T07:26:50.164Z,65.47
2019-02-02T07:29:18.333Z,76.83
2019-02-02T07:31:46.478Z,69.57
2019-02-02T07:34:14.620Z,65.43
2019-02-02T07:36:42.812Z,67.87
2019-02-02T07:39:11.026Z,67.63
2019-02-02T07:41:41.128Z,75.37
2019-02-02T07:44:08.996Z,72.57
2019-02-02T07:46:37.127Z,80.03
2019-02-02T07:49:05.469Z,76.77
2019-02-02T07:51:33.628Z,67.60
2019-02-02T07:54:01.763Z,77.73
2019-02-02T07:56:29.899Z,78.23
2019-02-02T07:58:58.277Z,77.50
2019-02-02T08:01:26.413Z,81.43
2019-02-02T08:03:54.558Z,73.33
2019-02-02T08:06:22.719Z,79.67
2019-02-02T08:08:50.849Z,74.13
2019-02-02T08:11:18.989Z,77.07
2019-02-02T08:13:47.156Z,89.23
2019-02-02T08:16:15.293Z,77.03
2019-02-02T08:18:43.460Z,74.90
2019-02-02T08:21:11.631Z,85.13
2019-02-02T08:23:39.771Z,77.13
2019-02-02T08:26:07.912Z,75.83
2019-02-02T08:28:36.084Z,78.97
2019-02-02T08:31:04.330Z,77.57
2019-02-02T08:33:32.468Z,79.30
2019-02-02T08:36:00.623Z,85.77
2019-02-02T08:38:28.767Z,84.70
2019-02-02T08:40:57.705Z,80.83
2019-02-02T08:43:25.876Z,80.37
2019-02-02T08:45:54.084Z,86.97
2019-02-02T08:48:22.305Z,82.57
2019-02-02T08:50:50.476Z,76.73
2019-02-02T08:53:18.968Z,73.17
2019-02-02T08:55:47.116Z,79.73
2019-02-02T08:58:15.371Z,74.17
2019-02-02T09:00:43.503Z,71.53
2019-02-02T09:03:11.668Z,80.80
2019-02-02T09:05:39.954Z,76.30
2019-02-02T09:08:08.102Z,78.00
2019-02-02T09:10:36.234Z,76.67
2019-02-02T09:13:04.483Z,83.97
2019-02-02T09:15:32.634Z,82.63
2019-02-02T09:18:00.768Z,77.67
2019-02-02T09:20:28.937Z,80.50
2019-02-02T09:23:04.200Z,73.43
2019-02-02T09:25:27.159Z,79.42
2019-02-02T09:27:55.332Z,78.07
2019-02-02T09:30:24.543Z,81.80
2019-02-02T09:32:52.694Z,85.63
2019-02-02T09:35:20.874Z,77.50
2019-02-02T09:37:49.015Z,77.73
2019-02-02T09:40:18.119Z,83.67
2019-02-02T09:42:46.397Z,80.37
2019-02-02T09:45:15.520Z,79.87
2019-02-02T09:47:43.667Z,84.93
2019-02-02T09:50:13.511Z,80.33
2019-02-02T09:52:41.652Z,83.70
2019-02-02T09:55:11.455Z,75.83
2019-02-02T09:57:39.629Z,72.70
2019-02-02T10:00:09.401Z,86.37
2019-02-02T10:02:37.556Z,75.53
2019-02-02T10:05:06.196Z,83.83
2019-02-02T10:07:34.352Z,80.40
2019-02-02T10:10:02.496Z,72.03
2019-02-02T10:12:30.664Z,84.30
2019-02-02T10:15:00.216Z,80.60
2019-02-02T10:17:28.356Z,76.70
2019-02-02T10:19:56.532Z,67.60
2019-02-02T10:22:24.670Z,69.80
2019-02-02T10:24:52.810Z,80.00
2019-02-02T10:27:20.976Z,68.43
2019-02-02T10:29:49.125Z,66.17
2019-02-02T10:32:17.272Z,64.20
2019-02-02T10:34:45.482Z,70.20
2019-02-02T10:37:13.644Z,70.90
2019-02-02T10:39:41.789Z,74.93
2019-02-02T10:42:09.955Z,75.50
2019-02-02T10:44:38.100Z,68.00
2019-02-02T10:47:06.369Z,64.77
2019-02-02T10:49:34.532Z,63.80
2019-02-02T10:52:02.676Z,73.30
2019-02-02T10:54:30.848Z,60.67
2019-02-02T10:56:59.000Z,62.87
2019-02-02T10:59:27.149Z,61.57
2019-02-02T11:01:55.429Z,63.77
2019-02-02T11:04:23.633Z,66.07
2019-02-02T11:06:51.785Z,67.60
2019-02-02T11:09:20.095Z,72.37
2019-02-02T11:11:48.430Z,61.77
2019-02-02T11:14:16.528Z,58.30
2019-02-02T11:16:46.018Z,60.77
2019-02-02T11:19:14.603Z,64.73
2019-02-02T11:21:43.008Z,63.67
2019-02-02T11:24:11.581Z,60.17
2019-02-02T11:26:39.737Z,58.97
2019-02-02T11:29:08.054Z,56.03
2019-02-02T11:31:36.215Z,57.40
2019-02-02T11:34:04.484Z,57.57
2019-02-02T11:36:32.625Z,57.13
2019-02-02T11:39:00.765Z,58.87
2019-02-02T11:41:28.935Z,56.87
2019-02-02T11:43:57.085Z,61.60
2019-02-02T11:46:25.221Z,56.80
2019-02-02T11:48:53.395Z,61.80
2019-02-02T11:51:21.545Z,52.00
2019-02-02T11:53:50.594Z,63.47
2019-02-02T11:56:18.768Z,60.00
2019-02-02T11:58:46.908Z,59.07
2019-02-02T12:01:16.128Z,58.60
2019-02-02T12:03:44.300Z,60.43
2019-02-02T12:06:12.447Z,52.53
2019-02-02T12:08:40.592Z,51.97
2019-02-02T12:11:08.920Z,52.83
2019-02-02T12:13:37.072Z,48.27
2019-02-02T12:16:05.214Z,52.75
2019-02-02T12:18:33.383Z,52.80
2019-02-02T12:21:01.527Z,54.93
2019-02-02T12:23:29.817Z,45.93
2019-02-02T12:25:57.972Z,47.30
2019-02-02T12:28:26.108Z,41.47
2019-02-02T12:30:55.484Z,39.50
2019-02-02T12:33:25.905Z,41.87
2019-02-02T12:35:53.476Z,37.80
2019-02-02T12:38:21.629Z,40.37
2019-02-02T12:40:49.807Z,38.43
2019-02-02T12:43:17.948Z,39.53
2019-02-02T12:45:47.169Z,36.97
2019-02-02T12:48:19.911Z,40.93
2019-02-02T12:50:48.048Z,37.57
2019-02-02T12:53:16.260Z,37.53
2019-02-02T12:55:44.546Z,34.10
2019-02-02T12:58:12.750Z,45.83
2019-02-02T13:00:40.920Z,30.63
2019-02-02T13:03:10.632Z,33.80
2019-02-02T13:05:39.152Z,28.73
2019-02-02T13:08:07.567Z,30.20
2019-02-02T13:10:35.751Z,29.27
2019-02-02T13:13:03.898Z,27.40
2019-02-02T13:15:32.044Z,25.13
2019-02-02T13:18:00.255Z,30.83
2019-02-02T13:20:28.475Z,27.33
2019-02-02T13:22:56.604Z,26.83
2019-02-02T13:25:25.465Z,28.83
2019-02-02T13:27:53.629Z,29.67
2019-02-02T13:30:23.374Z,27.63
2019-02-02T13:32:51.563Z,32.00
2019-02-02T13:35:20.305Z,29.70
2019-02-02T13:37:48.444Z,29.07
2019-02-02T13:40:17.786Z,33.53
2019-02-02T13:42:45.929Z,34.43
2019-02-02T13:45:14.741Z,29.10
2019-02-02T13:47:42.900Z,32.03
2019-02-02T13:50:12.250Z,29.60
2019-02-02T13:52:40.352Z,28.33
2019-02-02T13:55:08.788Z,28.53
2019-02-02T13:57:36.955Z,26.40
2019-02-02T14:00:09.889Z,26.67
2019-02-02T14:02:38.062Z,23.93
2019-02-02T14:05:07.837Z,26.50
2019-02-02T14:07:35.996Z,23.80
2019-02-02T14:10:05.808Z,26.70
2019-02-02T14:12:34.052Z,25.57
2019-02-02T14:15:02.220Z,29.30
2019-02-02T14:17:30.401Z,28.13
2019-02-02T14:19:58.539Z,29.53
2019-02-02T14:22:26.683Z,27.70
2019-02-02T14:24:54.869Z,30.30
2019-02-02T14:27:23.013Z,29.20
2019-02-02T14:29:51.152Z,31.73
2019-02-02T14:32:19.349Z,33.40
2019-02-02T14:34:47.477Z,30.47
2019-02-02T14:37:15.642Z,32.87
2019-02-02T14:39:43.800Z,33.43
2019-02-02T14:42:11.948Z,33.60
2019-02-02T14:44:40.096Z,31.93
2019-02-02T14:47:08.260Z,30.97
2019-02-02T14:49:36.416Z,31.17
2019-02-02T14:52:04.556Z,34.23
2019-02-02T14:54:32.748Z,30.07
2019-02-02T14:57:00.895Z,32.03
2019-02-02T14:59:29.037Z,30.33
2019-02-02T15:01:57.366Z,32.13
2019-02-02T15:04:25.509Z,33.70
2019-02-02T15:06:53.640Z,33.37
2019-02-02T15:09:21.904Z,36.03
2019-02-02T15:11:49.956Z,29.33
2019-02-02T15:14:18.108Z,36.80
2019-02-02T15:16:46.277Z,30.67
2019-02-02T15:19:14.424Z,31.60
2019-02-02T15:21:42.572Z,30.97
2019-02-02T15:24:10.746Z,33.90
2019-02-02T15:26:38.884Z,37.40
2019-02-02T15:29:07.024Z,32.40
2019-02-02T15:31:35.202Z,30.40
2019-02-02T15:34:03.348Z,29.30
2019-02-02T15:36:31.492Z,33.77
2019-02-02T15:38:59.655Z,31.50
2019-02-02T15:41:27.916Z,30.67
2019-02-02T15:43:56.074Z,32.30
2019-02-02T15:46:24.260Z,28.83
2019-02-02T15:48:52.400Z,29.37
2019-02-02T15:51:22.256Z,31.40
2019-02-02T15:53:50.425Z,27.90
2019-02-02T15:56:18.566Z,31.37
2019-02-02T15:58:46.712Z,35.77
2019-02-02T16:01:14.911Z,31.07
2019-02-02T16:03:49.541Z,31.10
2019-02-02T16:06:12.866Z,29.73
2019-02-02T16:08:41.050Z,26.40
2019-02-02T16:11:09.195Z,27.63
2019-02-02T16:13:37.320Z,24.50
2019-02-02T16:16:05.536Z,23.13
2019-02-02T16:18:33.685Z,25.70
2019-02-02T16:21:01.839Z,23.90
2019-02-02T16:23:30.005Z,25.80
2019-02-02T16:25:58.260Z,29.97
2019-02-02T16:28:26.396Z,30.50
2019-02-02T16:30:54.560Z,26.17
2019-02-02T16:33:24.332Z,24.03
2019-02-02T16:35:52.500Z,27.63
2019-02-02T16:38:20.692Z,32.87
2019-02-02T16:40:48.827Z,34.10
2019-02-02T16:43:16.989Z,34.53
2019-02-02T16:45:45.839Z,30.10
2019-02-02T16:48:13.999Z,29.37
2019-02-02T16:50:42.134Z,31.17
2019-02-02T16:53:10.309Z,31.83
2019-02-02T16:55:38.437Z,34.53
2019-02-02T16:58:06.700Z,30.23
2019-02-02T17:00:34.872Z,36.63
2019-02-02T17:03:03.006Z,34.80
2019-02-02T17:05:31.146Z,38.43
2019-02-02T17:07:59.329Z,40.57
2019-02-02T17:10:28.639Z,42.30
2019-02-02T17:12:56.844Z,37.40
2019-02-02T17:15:25.009Z,38.50
2019-02-02T17:17:53.164Z,41.33
2019-02-02T17:20:22.964Z,42.43
2019-02-02T17:22:51.428Z,39.20
2019-02-02T17:25:22.375Z,39.60
2019-02-02T17:27:49.950Z,44.63
2019-02-02T17:30:24.649Z,39.30
2019-02-02T17:32:55.182Z,43.90
2019-02-02T17:35:24.486Z,41.47
2019-02-02T17:37:52.656Z,44.47
2019-02-02T17:40:25.268Z,46.10
2019-02-02T17:42:53.404Z,44.40
2019-02-02T17:45:24.204Z,48.50
2019-02-02T17:47:52.351Z,46.83
2019-02-02T17:50:21.258Z,45.87
2019-02-02T17:52:49.430Z,46.17
2019-02-02T17:55:17.573Z,43.03
2019-02-02T17:57:45.722Z,49.60
2019-02-02T18:00:26.043Z,47.97
2019-02-02T18:02:54.173Z,46.87
2019-02-02T18:05:23.188Z,43.50
2019-02-02T18:07:51.356Z,43.77
2019-02-02T18:10:19.631Z,42.03
2019-02-02T18:12:47.784Z,47.00
2019-02-02T18:15:16.129Z,42.43
2019-02-02T18:17:45.178Z,41.10
2019-02-02T18:20:16.241Z,41.00
2019-02-02T18:22:44.430Z,37.40
2019-02-02T18:25:19.042Z,37.07
2019-02-02T18:27:47.179Z,29.70
2019-02-02T18:30:19.695Z,26.57
2019-02-02T18:32:47.835Z,27.80
2019-02-02T18:35:17.537Z,24.57
2019-02-02T18:37:45.741Z,25.50
2019-02-02T18:40:15.047Z,24.17
2019-02-02T18:42:43.184Z,23.17
2019-02-02T18:45:13.008Z,21.57
2019-02-02T18:47:41.201Z,26.63
2019-02-02T18:50:11.112Z,25.07
2019-02-02T18:52:39.289Z,21.20
2019-02-02T18:55:09.061Z,24.37
2019-02-02T18:57:37.195Z,23.20
2019-02-02T19:00:06.999Z,23.70
2019-02-02T19:02:35.148Z,24.30
2019-02-02T19:05:04.380Z,22.60
2019-02-02T19:07:32.935Z,23.13
2019-02-02T19:10:01.075Z,27.60
2019-02-02T19:12:29.212Z,27.80
2019-02-02T19:14:57.384Z,27.97
2019-02-02T19:17:27.070Z,28.33
2019-02-02T19:19:55.240Z,30.73
2019-02-02T19:22:23.412Z,32.57
2019-02-02T19:24:51.581Z,28.43
2019-02-02T19:27:22.126Z,33.40
2019-02-02T19:29:50.283Z,32.53
2019-02-02T19:32:18.436Z,37.20
2019-02-02T19:34:47.464Z,35.60
2019-02-02T19:37:17.715Z,35.53
2019-02-02T19:39:45.831Z,32.33
2019-02-02T19:42:13.967Z,31.93
2019-02-02T19:44:42.130Z,32.03
2019-02-02T19:47:16.251Z,33.90
2019-02-02T19:49:43.710Z,33.93
2019-02-02T19:52:11.874Z,37.80
2019-02-02T19:54:40.012Z,36.43
2019-02-02T19:57:10.843Z,36.23
2019-02-02T19:59:39.145Z,36.60
2019-02-02T20:02:07.268Z,32.47
2019-02-02T20:04:35.404Z,30.20
2019-02-02T20:07:03.581Z,35.90
2019-02-02T20:09:31.718Z,33.53
2019-02-02T20:11:59.864Z,33.23
2019-02-02T20:14:28.039Z,34.03
2019-02-02T20:16:56.300Z,31.90
2019-02-02T20:19:24.442Z,31.17
2019-02-02T20:21:52.617Z,35.23
2019-02-02T20:24:20.755Z,31.30
2019-02-02T20:26:48.903Z,33.30
2019-02-02T20:29:17.080Z,36.63
2019-02-02T20:31:45.293Z,33.20
2019-02-02T20:34:13.435Z,35.93
2019-02-02T20:36:41.612Z,34.47
2019-02-02T20:39:09.752Z,37.23
2019-02-02T20:41:37.892Z,38.47
2019-02-02T20:44:06.064Z,37.60
2019-02-02T20:46:34.200Z,39.93
2019-02-02T20:49:02.339Z,41.03
2019-02-02T20:51:30.510Z,42.00
2019-02-02T20:53:58.655Z,43.47
2019-02-02T20:56:26.807Z,43.93
2019-02-02T20:58:55.104Z,44.10
2019-02-02T21:01:23.257Z,45.63
2019-02-02T21:03:51.402Z,46.47
2019-02-02T21:06:19.585Z,58.37
2019-02-02T21:08:47.732Z,55.20
2019-02-02T21:11:15.863Z,53.20
2019-02-02T21:13:44.533Z,53.97
2019-02-02T21:16:12.704Z,60.00
2019-02-02T21:18:40.857Z,57.17
2019-02-02T21:21:09.147Z,64.17
2019-02-02T21:23:37.283Z,62.03
2019-02-02T21:26:05.431Z,57.63
2019-02-02T21:28:33.897Z,64.03
2019-02-02T21:31:02.035Z,60.67
2019-02-02T21:33:30.308Z,60.73
2019-02-02T21:36:04.150Z,60.40
2019-02-02T21:38:28.258Z,58.67
2019-02-02T21:40:56.399Z,60.37
2019-02-02T21:43:24.563Z,58.53
2019-02-02T21:45:52.703Z,59.73
2019-02-02T21:48:20.843Z,61.47
2019-02-02T21:50:49.031Z,62.83
2019-02-02T21:53:17.192Z,63.20
2019-02-02T21:55:45.325Z,61.17
2019-02-02T21:58:13.504Z,59.50
2019-02-02T22:00:42.092Z,59.13
2019-02-02T22:03:10.221Z,67.07
2019-02-02T22:05:38.379Z,55.47
2019-02-02T22:08:06.585Z,67.40
2019-02-02T22:10:34.725Z,77.43
2019-02-02T22:13:02.884Z,64.57
2019-02-02T22:15:31.094Z,65.27
2019-02-02T22:17:59.227Z,69.47
2019-02-02T22:20:27.402Z,66.27
2019-02-02T22:22:55.643Z,65.97
2019-02-02T22:25:25.552Z,71.83
2019-02-02T22:27:53.716Z,66.90
2019-02-02T22:30:22.927Z,68.07
2019-02-02T22:32:51.252Z,68.50
2019-02-02T22:35:19.425Z,72.93
2019-02-02T22:37:47.560Z,70.47
2019-02-02T22:40:17.720Z,65.77
2019-02-02T22:42:45.892Z,74.03
2019-02-02T22:45:15.399Z,71.93
2019-02-02T22:47:43.537Z,64.37
2019-02-02T22:50:13.097Z,65.13
2019-02-02T22:52:41.294Z,64.30
2019-02-02T22:55:11.008Z,64.87
2019-02-02T22:57:39.175Z,57.07
2019-02-02T23:00:15.640Z,58.20
2019-02-02T23:02:43.815Z,52.93
2019-02-02T23:05:15.432Z,50.87
2019-02-02T23:07:45.491Z,45.60
2019-02-02T23:10:15.287Z,48.47
2019-02-02T23:12:47.987Z,46.10
2019-02-02T23:15:17.781Z,45.83
2019-02-02T23:17:46.016Z,36.33
2019-02-02T23:20:14.148Z,40.00
2019-02-02T23:22:42.317Z,38.53
2019-02-02T23:25:10.576Z,34.73
2019-02-02T23:27:38.717Z,36.20
2019-02-02T23:30:08.566Z,38.55
2019-02-02T23:32:36.708Z,34.93
2019-02-02T23:35:04.845Z,30.10
2019-02-02T23:37:33.009Z,34.17
2019-02-02T23:40:01.140Z,38.23
2019-02-02T23:42:30.646Z,32.37
2019-02-02T23:44:58.816Z,32.27
2019-02-02T23:47:28.905Z,40.10
2019-02-02T23:49:57.017Z,33.17
2019-02-02T23:52:25.189Z,33.20
2019-02-02T23:54:53.328Z,32.93
2019-02-02T23:57:21.485Z,32.93
2019-02-02T23:59:51.042Z,34.17
